createdAt,value
2022-12-11T00:00:52.666Z,22.88
2022-12-11T00:03:39.868Z,21.52
2022-12-11T00:06:11.901Z,21.75
2022-12-11T00:08:39.887Z,21.15
2022-12-11T00:11:13.157Z,19.08
2022-12-11T00:13:40.309Z,22.08
2022-12-11T00:16:07.642Z,21.67
2022-12-11T00:18:34.840Z,20.33
2022-12-11T00:21:06.764Z,19.63
2022-12-11T00:23:37.455Z,20.23
2022-12-11T00:26:09.575Z,22.02
2022-12-11T00:28:36.821Z,19.70
2022-12-11T00:31:09.047Z,20.92
2022-12-11T00:33:36.122Z,20.08
2022-12-11T00:36:03.907Z,20.33
2022-12-11T00:38:31.026Z,20.63
2022-12-11T00:40:59.276Z,21.25
2022-12-11T00:43:26.557Z,21.50
2022-12-11T00:45:53.437Z,19.90
2022-12-11T00:48:20.774Z,21.95
2022-12-11T00:50:47.585Z,21.02
2022-12-11T00:53:15.127Z,20.08
2022-12-11T00:55:43.484Z,19.13
2022-12-11T00:58:12.474Z,20.80
2022-12-11T01:00:40.384Z,21.00
2022-12-11T01:03:08.277Z,19.42
2022-12-11T01:05:35.906Z,18.10
2022-12-11T01:08:03.564Z,18.50
2022-12-11T01:10:30.926Z,18.98
2022-12-11T01:13:02.574Z,20.02
2022-12-11T01:15:32.127Z,19.60
2022-12-11T01:17:59.304Z,18.30
2022-12-11T01:20:28.043Z,20.65
2022-12-11T01:22:57.146Z,18.92
2022-12-11T01:25:24.699Z,18.40
2022-12-11T01:27:53.908Z,16.92
2022-12-11T01:30:23.263Z,19.45
2022-12-11T01:32:50.528Z,17.92
2022-12-11T01:35:18.769Z,18.13
2022-12-11T01:37:46.024Z,17.45
2022-12-11T01:40:18.898Z,17.02
2022-12-11T01:42:46.270Z,18.42
2022-12-11T01:45:23.800Z,16.80
2022-12-11T01:48:00.628Z,18.42
2022-12-11T01:50:29.187Z,16.98
2022-12-11T01:52:56.402Z,17.02
2022-12-11T01:55:23.496Z,15.73
2022-12-11T01:57:51.969Z,15.73
2022-12-11T02:00:20.010Z,16.08
2022-12-11T02:02:47.199Z,17.05
2022-12-11T02:05:14.190Z,17.85
2022-12-11T02:07:46.429Z,17.52
2022-12-11T02:10:14.018Z,17.95
2022-12-11T02:13:00.834Z,17.15
2022-12-11T02:15:35.833Z,17.63
2022-12-11T02:18:08.711Z,16.17
2022-12-11T02:20:41.974Z,16.95
2022-12-11T02:23:12.624Z,17.98
2022-12-11T02:26:18.857Z,16.02
2022-12-11T02:28:51.011Z,16.75
2022-12-11T02:31:34.720Z,17.42
2022-12-11T02:34:12.597Z,13.88
2022-12-11T02:36:43.971Z,17.27
2022-12-11T02:39:15.052Z,16.58
2022-12-11T02:41:47.992Z,15.30
2022-12-11T02:44:17.825Z,13.88
2022-12-11T02:46:45.780Z,17.08
2022-12-11T02:49:15.142Z,16.65
2022-12-11T02:51:43.312Z,16.92
2022-12-11T02:54:20.926Z,15.32
2022-12-11T02:56:55.901Z,17.13
2022-12-11T02:59:32.967Z,16.05
2022-12-11T03:02:00.331Z,16.30
2022-12-11T03:04:28.875Z,15.35
2022-12-11T03:07:01.536Z,16.80
2022-12-11T03:09:28.752Z,16.85
2022-12-11T03:11:55.722Z,16.08
2022-12-11T03:14:22.865Z,16.13
2022-12-11T03:17:02.034Z,15.57
2022-12-11T03:19:40.203Z,16.77
2022-12-11T03:22:17.907Z,15.98
2022-12-11T03:25:01.820Z,15.82
2022-12-11T03:27:42.570Z,15.27
2022-12-11T03:30:18.970Z,16.17
2022-12-11T03:33:06.344Z,14.45
2022-12-11T03:35:38.891Z,15.20
2022-12-11T03:38:11.521Z,14.48
2022-12-11T03:40:42.243Z,13.18
2022-12-11T03:43:11.413Z,14.20
2022-12-11T03:45:41.220Z,14.35
2022-12-11T03:48:09.901Z,13.77
2022-12-11T03:50:38.222Z,14.27
2022-12-11T03:53:05.704Z,11.32
2022-12-11T03:55:34.615Z,13.25
2022-12-11T03:58:01.521Z,14.10
2022-12-11T04:00:29.451Z,15.43
2022-12-11T04:03:15.139Z,15.15
2022-12-11T04:06:00.208Z,13.35
2022-12-11T04:08:27.733Z,14.18
2022-12-11T04:11:13.534Z,11.00
2022-12-11T04:13:42.023Z,13.30
2022-12-11T04:16:09.877Z,14.80
2022-12-11T04:18:55.500Z,14.45
2022-12-11T04:21:40.654Z,14.43
2022-12-11T04:24:16.838Z,15.38
2022-12-11T04:26:45.526Z,13.25
2022-12-11T04:29:13.893Z,15.15
2022-12-11T04:31:40.769Z,15.55
2022-12-11T04:34:08.233Z,14.55
2022-12-11T04:36:35.083Z,14.50
2022-12-11T04:39:02.190Z,15.93
2022-12-11T04:41:29.060Z,14.57
2022-12-11T04:43:56.192Z,15.18
2022-12-11T04:46:24.451Z,15.90
2022-12-11T04:48:57.445Z,15.45
2022-12-11T04:51:25.380Z,14.90
2022-12-11T04:53:52.826Z,14.95
2022-12-11T04:56:20.069Z,15.45
2022-12-11T04:58:48.398Z,14.82
2022-12-11T05:01:18.922Z,15.13
2022-12-11T05:03:47.127Z,11.07
2022-12-11T05:06:14.314Z,13.90
2022-12-11T05:08:43.659Z,14.10
2022-12-11T05:11:13.353Z,14.45
2022-12-11T05:13:41.201Z,14.02
2022-12-11T05:16:12.648Z,13.35
2022-12-11T05:18:40.016Z,11.98
2022-12-11T05:21:09.815Z,13.60
2022-12-11T05:23:37.435Z,12.68
2022-12-11T05:26:17.089Z,14.80
2022-12-11T05:28:45.486Z,12.05
2022-12-11T05:31:20.030Z,13.52
2022-12-11T05:33:50.212Z,12.27
2022-12-11T05:36:22.446Z,12.38
2022-12-11T05:38:50.355Z,12.43
2022-12-11T05:41:19.866Z,14.15
2022-12-11T05:43:47.361Z,11.77
2022-12-11T05:46:25.351Z,13.45
2022-12-11T05:48:56.295Z,10.70
2022-12-11T05:51:23.853Z,12.85
2022-12-11T05:53:52.815Z,12.75
2022-12-11T05:56:23.205Z,13.20
2022-12-11T05:58:50.854Z,13.88
2022-12-11T06:01:39.469Z,12.57
2022-12-11T06:04:09.713Z,10.55
2022-12-11T06:06:36.953Z,11.57
2022-12-11T06:09:05.441Z,7.97
2022-12-11T06:11:33.903Z,10.48
2022-12-11T06:14:03.010Z,9.55
2022-12-11T06:16:30.670Z,10.00
2022-12-11T06:18:58.850Z,9.57
2022-12-11T06:21:31.371Z,10.75
2022-12-11T06:24:01.008Z,7.72
2022-12-11T06:26:28.210Z,8.75
2022-12-11T06:28:55.363Z,9.52
2022-12-11T06:31:22.426Z,9.65
2022-12-11T06:33:49.711Z,9.57
2022-12-11T06:36:20.985Z,11.32
2022-12-11T06:38:48.944Z,9.90
2022-12-11T06:41:16.602Z,10.38
2022-12-11T06:43:44.058Z,10.35
2022-12-11T06:46:14.244Z,10.63
2022-12-11T06:48:42.396Z,10.88
2022-12-11T06:51:12.530Z,9.55
2022-12-11T06:53:40.326Z,7.30
2022-12-11T06:56:10.465Z,8.30
2022-12-11T06:58:38.513Z,10.43
2022-12-11T07:01:18.051Z,8.50
2022-12-11T07:03:45.950Z,10.07
2022-12-11T07:06:12.960Z,10.82
2022-12-11T07:08:40.571Z,10.32
2022-12-11T07:11:10.421Z,10.27
2022-12-11T07:13:37.634Z,10.30
2022-12-11T07:16:10.609Z,8.82
2022-12-11T07:18:43.305Z,8.82
2022-12-11T07:21:12.664Z,8.20
2022-12-11T07:23:40.605Z,9.07
2022-12-11T07:26:10.661Z,9.65
2022-12-11T07:28:38.196Z,7.23
2022-12-11T07:31:10.356Z,9.60
2022-12-11T07:33:37.943Z,9.45
2022-12-11T07:36:06.926Z,8.38
2022-12-11T07:38:34.458Z,8.73
2022-12-11T07:41:03.053Z,9.27
2022-12-11T07:43:30.210Z,8.70
2022-12-11T07:46:01.954Z,9.05
2022-12-11T07:48:29.652Z,8.65
2022-12-11T07:50:56.799Z,10.07
2022-12-11T07:53:23.883Z,9.15
2022-12-11T07:55:50.671Z,11.25
2022-12-11T07:58:17.805Z,9.70
2022-12-11T08:00:45.459Z,10.60
2022-12-11T08:03:12.563Z,11.75
2022-12-11T08:05:39.629Z,11.13
2022-12-11T08:08:06.769Z,10.63
2022-12-11T08:10:33.601Z,11.50
2022-12-11T08:13:00.772Z,9.27
2022-12-11T08:15:27.637Z,10.30
2022-12-11T08:17:54.752Z,10.95
2022-12-11T08:20:21.756Z,11.98
2022-12-11T08:22:48.862Z,11.30
2022-12-11T08:25:15.923Z,12.25
2022-12-11T08:27:43.092Z,11.88
2022-12-11T08:30:10.421Z,10.30
2022-12-11T08:32:37.628Z,11.02
2022-12-11T08:35:04.777Z,10.57
2022-12-11T08:37:31.893Z,11.88
2022-12-11T08:39:58.897Z,10.82
2022-12-11T08:42:25.987Z,9.68
2022-12-11T08:44:52.826Z,10.98
2022-12-11T08:47:20.741Z,11.20
2022-12-11T08:49:47.574Z,10.23
2022-12-11T08:52:14.626Z,9.35
2022-12-11T08:54:41.847Z,11.20
2022-12-11T08:57:08.921Z,10.30
2022-12-11T08:59:35.838Z,10.98
2022-12-11T09:02:02.915Z,9.55
2022-12-11T09:04:30.030Z,9.65
2022-12-11T09:06:57.294Z,9.98
2022-12-11T09:09:24.410Z,9.57
2022-12-11T09:11:51.654Z,9.50
2022-12-11T09:14:18.874Z,10.13
2022-12-11T09:16:46.057Z,9.75
2022-12-11T09:19:14.944Z,8.88
2022-12-11T09:21:43.619Z,9.68
2022-12-11T09:24:12.543Z,8.98
2022-12-11T09:26:40.533Z,10.20
2022-12-11T09:29:07.903Z,10.70
2022-12-11T09:31:37.241Z,10.27
2022-12-11T09:34:07.645Z,9.23
2022-12-11T09:36:35.559Z,11.35
2022-12-11T09:39:04.400Z,8.88
2022-12-11T09:42:11.150Z,8.57
2022-12-11T09:44:48.555Z,9.15
2022-12-11T09:47:42.839Z,8.13
2022-12-11T09:50:09.845Z,10.65
2022-12-11T09:53:12.614Z,7.00
2022-12-11T09:55:48.276Z,8.75
2022-12-11T09:58:37.912Z,9.48
2022-12-11T10:01:34.754Z,10.23
2022-12-11T10:04:20.454Z,9.43
2022-12-11T10:06:57.955Z,9.63
2022-12-11T10:09:42.063Z,8.90
2022-12-11T10:12:20.187Z,9.70
2022-12-11T10:14:53.115Z,9.85
2022-12-11T10:17:25.495Z,10.65
2022-12-11T10:19:53.662Z,8.38
2022-12-11T10:22:24.576Z,9.57
2022-12-11T10:25:10.856Z,9.90
2022-12-11T10:27:39.930Z,10.02
2022-12-11T10:30:13.045Z,9.55
2022-12-11T10:33:04.293Z,10.25
2022-12-11T10:35:36.928Z,9.15
2022-12-11T10:38:20.844Z,10.82
2022-12-11T10:40:57.368Z,9.15
2022-12-11T10:43:34.930Z,8.52
2022-12-11T10:46:02.843Z,10.18
2022-12-11T10:48:29.981Z,9.90
2022-12-11T10:51:00.951Z,8.27
2022-12-11T10:53:29.142Z,11.05
2022-12-11T10:55:58.588Z,8.50
2022-12-11T10:58:29.155Z,10.18
2022-12-11T11:01:17.075Z,10.30
2022-12-11T11:04:06.849Z,7.90
2022-12-11T11:06:34.111Z,9.15
2022-12-11T11:09:02.217Z,9.70
2022-12-11T11:11:33.883Z,10.80
2022-12-11T11:14:14.650Z,9.43
2022-12-11T11:16:45.841Z,9.20
2022-12-11T11:19:24.319Z,7.05
2022-12-11T11:21:55.840Z,8.27
2022-12-11T11:27:13.666Z,7.85
2022-12-11T11:29:42.071Z,7.13
2022-12-11T11:32:34.189Z,7.78
2022-12-11T11:35:13.281Z,8.57
2022-12-11T11:37:44.487Z,9.90
2022-12-11T11:40:13.483Z,8.68
2022-12-11T11:43:04.836Z,9.25
2022-12-11T11:45:40.633Z,8.02
2022-12-11T11:48:20.734Z,7.65
2022-12-11T11:50:50.628Z,8.77
2022-12-11T11:53:30.563Z,6.07
2022-12-11T11:56:03.647Z,5.65
2022-12-11T11:58:41.809Z,8.63
2022-12-11T12:01:15.111Z,8.80
2022-12-11T12:03:42.361Z,9.15
2022-12-11T12:06:27.664Z,8.10
2022-12-11T12:09:39.429Z,8.82
2022-12-11T12:12:35.813Z,6.45
2022-12-11T12:15:18.482Z,10.35
2022-12-11T12:17:55.133Z,9.70
2022-12-11T12:20:32.417Z,8.75
2022-12-11T12:23:36.492Z,9.68
2022-12-11T12:26:14.266Z,6.72
2022-12-11T12:28:49.056Z,7.78
2022-12-11T12:31:24.462Z,8.05
2022-12-11T12:34:14.400Z,8.70
2022-12-11T12:36:53.711Z,8.02
2022-12-11T12:39:54.223Z,9.52
2022-12-11T12:42:30.889Z,9.23
2022-12-11T12:45:07.240Z,10.23
2022-12-11T12:47:36.803Z,12.82
2022-12-11T12:50:10.423Z,11.23
2022-12-11T12:52:40.052Z,10.85
2022-12-11T12:55:22.775Z,9.98
2022-12-11T12:58:00.513Z,7.80
2022-12-11T13:00:33.540Z,11.02
2022-12-11T13:03:17.195Z,11.10
2022-12-11T13:06:00.039Z,8.98
2022-12-11T13:08:31.146Z,12.05
2022-12-11T13:11:07.621Z,11.07
2022-12-11T13:13:51.550Z,10.15
2022-12-11T13:16:25.832Z,10.80
2022-12-11T13:21:26.186Z,10.52
2022-12-11T13:23:54.213Z,10.82
2022-12-11T13:26:32.785Z,10.40
2022-12-11T13:28:59.962Z,8.52
2022-12-11T13:31:36.497Z,11.15
2022-12-11T13:34:24.458Z,9.75
2022-12-11T13:36:54.126Z,9.75
2022-12-11T13:39:28.042Z,10.20
2022-12-11T13:42:20.948Z,11.05
2022-12-11T13:44:49.299Z,9.48
2022-12-11T13:47:19.295Z,9.50
2022-12-11T13:49:53.396Z,9.23
2022-12-11T13:52:25.909Z,10.60
2022-12-11T13:54:55.760Z,9.18
2022-12-11T13:57:25.956Z,11.60
2022-12-11T13:59:55.582Z,12.50
2022-12-11T14:02:42.509Z,9.88
2022-12-11T14:05:13.113Z,11.23
2022-12-11T14:07:50.645Z,10.90
2022-12-11T14:10:24.460Z,10.20
2022-12-11T14:13:08.306Z,9.68
2022-12-11T14:15:36.472Z,10.80
2022-12-11T14:18:05.592Z,11.00
2022-12-11T14:20:34.947Z,9.07
2022-12-11T14:23:22.240Z,9.45
2022-12-11T14:26:04.001Z,8.82
2022-12-11T14:28:38.121Z,10.48
2022-12-11T14:31:06.590Z,10.30
2022-12-11T14:33:54.433Z,9.77
2022-12-11T14:36:23.641Z,9.15
2022-12-11T14:39:03.161Z,10.07
2022-12-11T14:41:41.497Z,8.48
2022-12-11T14:44:15.536Z,10.10
2022-12-11T14:46:58.599Z,8.93
2022-12-11T14:49:40.953Z,9.88
2022-12-11T14:52:20.085Z,10.20
2022-12-11T14:54:53.197Z,10.13
2022-12-11T14:57:26.850Z,9.10
2022-12-11T14:59:55.189Z,9.98
2022-12-11T15:02:26.959Z,10.10
2022-12-11T15:05:00.056Z,7.82
2022-12-11T15:07:27.306Z,10.80
2022-12-11T15:09:54.211Z,8.52
2022-12-11T15:12:22.037Z,9.43
2022-12-11T15:14:53.425Z,8.98
2022-12-11T15:17:22.791Z,8.13
2022-12-11T15:19:53.209Z,8.98
2022-12-11T15:22:25.282Z,9.10
2022-12-11T15:24:54.437Z,8.95
2022-12-11T15:27:35.679Z,8.73
2022-12-11T15:30:27.172Z,8.90
2022-12-11T15:33:09.684Z,8.68
2022-12-11T15:35:39.059Z,8.75
2022-12-11T15:38:06.583Z,8.30
2022-12-11T15:40:33.495Z,10.10
2022-12-11T15:43:03.294Z,7.75
2022-12-11T15:45:30.141Z,8.48
2022-12-11T15:48:00.079Z,8.63
2022-12-11T15:50:28.843Z,7.97
2022-12-11T15:52:57.311Z,8.63
2022-12-11T15:55:27.362Z,9.30
2022-12-11T15:57:58.133Z,7.30
2022-12-11T16:00:27.611Z,9.23
2022-12-11T16:02:57.102Z,9.65
2022-12-11T16:05:27.784Z,7.57
2022-12-11T16:07:59.389Z,8.48
2022-12-11T16:12:59.329Z,8.93
2022-12-11T16:15:27.029Z,9.13
2022-12-11T16:18:03.083Z,8.10
2022-12-11T16:20:31.315Z,7.50
2022-12-11T16:22:59.258Z,7.63
2022-12-11T16:25:27.066Z,9.20
2022-12-11T16:27:58.080Z,7.90
2022-12-11T16:30:25.673Z,8.48
2022-12-11T16:32:53.327Z,8.60
2022-12-11T16:35:21.219Z,10.45
2022-12-11T16:37:52.784Z,10.57
2022-12-11T16:40:20.554Z,8.38
2022-12-11T16:42:49.308Z,11.48
2022-12-11T16:45:22.350Z,8.13
2022-12-11T16:47:49.793Z,10.23
2022-12-11T16:50:17.476Z,9.43
2022-12-11T16:52:45.045Z,11.15
2022-12-11T16:55:13.602Z,9.70
2022-12-11T16:57:41.364Z,9.18
2022-12-11T17:00:12.099Z,8.82
2022-12-11T17:02:39.590Z,10.93
2022-12-11T17:05:06.841Z,8.48
2022-12-11T17:07:34.708Z,8.13
2022-12-11T17:10:02.959Z,9.85
2022-12-11T17:12:30.736Z,11.35
2022-12-11T17:14:57.686Z,9.70
2022-12-11T17:17:25.183Z,8.88
2022-12-11T17:19:52.055Z,9.88
2022-12-11T17:22:19.452Z,8.55
2022-12-11T17:24:46.285Z,10.13
2022-12-11T17:27:13.686Z,10.48
2022-12-11T17:29:40.850Z,9.63
2022-12-11T17:32:08.939Z,9.93
2022-12-11T17:34:38.535Z,9.63
2022-12-11T17:37:06.405Z,8.43
2022-12-11T17:39:33.734Z,8.88
2022-12-11T17:42:00.851Z,10.15
2022-12-11T17:44:30.597Z,9.23
2022-12-11T17:46:58.600Z,8.10
2022-12-11T17:49:26.107Z,9.77
2022-12-11T17:51:55.306Z,8.75
2022-12-11T17:54:24.074Z,10.02
2022-12-11T17:56:51.250Z,9.20
2022-12-11T17:59:18.523Z,9.23
2022-12-11T18:01:45.630Z,9.82
2022-12-11T18:04:13.391Z,9.13
2022-12-11T18:06:40.376Z,9.25
2022-12-11T18:09:16.623Z,8.93
2022-12-11T18:11:43.511Z,9.07
2022-12-11T18:14:16.720Z,9.18
2022-12-11T18:16:44.317Z,8.95
2022-12-11T18:19:11.542Z,9.88
2022-12-11T18:21:41.361Z,10.77
2022-12-11T18:24:09.295Z,9.55
2022-12-11T18:26:37.609Z,9.98
2022-12-11T18:29:04.994Z,11.13
2022-12-11T18:31:31.972Z,9.82
2022-12-11T18:33:59.418Z,11.25
2022-12-11T18:36:26.285Z,11.13
2022-12-11T18:38:53.678Z,13.52
2022-12-11T18:41:21.263Z,11.57
2022-12-11T18:43:48.458Z,13.23
2022-12-11T18:46:19.431Z,10.85
2022-12-11T18:48:48.161Z,13.48
2022-12-11T18:51:22.629Z,12.00
2022-12-11T18:53:49.839Z,10.88
2022-12-11T18:56:18.874Z,15.50
2022-12-11T18:58:46.679Z,11.18
2022-12-11T19:01:20.481Z,12.27
2022-12-11T19:03:47.886Z,13.25
2022-12-11T19:06:21.469Z,13.30
2022-12-11T19:08:48.621Z,14.13
2022-12-11T19:11:22.174Z,13.38
2022-12-11T19:13:50.682Z,12.30
2022-12-11T19:16:22.884Z,12.18
2022-12-11T19:18:50.889Z,12.10
2022-12-11T19:21:18.581Z,12.25
2022-12-11T19:23:46.902Z,11.63
2022-12-11T19:26:16.568Z,12.70
2022-12-11T19:28:44.243Z,12.68
2022-12-11T19:31:17.142Z,13.13
2022-12-11T19:33:46.703Z,11.57
2022-12-11T19:36:19.911Z,12.20
2022-12-11T19:38:47.353Z,11.27
2022-12-11T19:41:26.884Z,13.35
2022-12-11T19:43:55.839Z,11.35
2022-12-11T19:46:23.580Z,11.98
2022-12-11T19:48:53.821Z,13.38
2022-12-11T19:51:36.481Z,12.27
2022-12-11T19:54:05.091Z,11.13
2022-12-11T19:56:32.983Z,13.05
2022-12-11T19:59:02.284Z,11.40
2022-12-11T20:01:31.280Z,11.43
2022-12-11T20:04:03.961Z,12.48
2022-12-11T20:06:33.169Z,15.60
2022-12-11T20:09:01.759Z,12.98
2022-12-11T20:11:28.875Z,14.07
2022-12-11T20:13:56.266Z,13.23
2022-12-11T20:16:45.856Z,11.70
2022-12-11T20:19:10.881Z,13.40
2022-12-11T20:21:37.766Z,12.40
2022-12-11T20:24:05.110Z,12.30
2022-12-11T20:26:35.935Z,12.05
2022-12-11T20:29:07.489Z,11.73
2022-12-11T20:34:02.367Z,11.85
2022-12-11T20:36:29.282Z,12.57
2022-12-11T20:38:56.584Z,13.10
2022-12-11T20:41:25.046Z,12.00
2022-12-11T20:43:54.106Z,13.05
2022-12-11T20:46:25.127Z,11.93
2022-12-11T20:48:54.058Z,9.75
2022-12-11T20:51:25.720Z,10.07
2022-12-11T20:53:59.040Z,10.52
2022-12-11T20:56:29.043Z,11.07
2022-12-11T20:58:57.977Z,12.30
2022-12-11T21:01:27.334Z,13.02
2022-12-11T21:03:54.607Z,10.88
2022-12-11T21:06:25.807Z,11.68
2022-12-11T21:08:53.653Z,11.20
2022-12-11T21:11:21.383Z,11.43
2022-12-11T21:13:51.648Z,10.93
2022-12-11T21:16:19.744Z,12.13
2022-12-11T21:18:48.339Z,11.38
2022-12-11T21:21:16.013Z,12.10
2022-12-11T21:23:43.932Z,11.77
2022-12-11T21:26:11.035Z,9.77
2022-12-11T21:28:38.264Z,10.48
2022-12-11T21:31:08.868Z,11.25
2022-12-11T21:33:36.423Z,11.98
2022-12-11T21:36:05.941Z,11.93
2022-12-11T21:38:33.721Z,10.52
2022-12-11T21:41:30.143Z,10.35
2022-12-11T21:46:44.420Z,10.23
2022-12-11T21:49:12.095Z,10.05
2022-12-11T21:51:46.816Z,9.98
2022-12-11T21:54:17.457Z,9.63
2022-12-11T21:56:45.220Z,9.50
2022-12-11T21:59:14.562Z,10.30
2022-12-11T22:01:46.165Z,9.55
2022-12-11T22:04:14.825Z,10.52
2022-12-11T22:06:43.559Z,10.45
2022-12-11T22:09:12.569Z,11.85
2022-12-11T22:11:40.769Z,10.80
2022-12-11T22:14:08.502Z,10.57
2022-12-11T22:16:35.399Z,10.05
2022-12-11T22:19:02.666Z,11.35
2022-12-11T22:21:29.924Z,11.57
2022-12-11T22:23:57.332Z,10.30
2022-12-11T22:26:26.090Z,9.77
2022-12-11T22:28:54.076Z,10.38
2022-12-11T22:31:22.966Z,11.55
2022-12-11T22:33:53.896Z,12.80
2022-12-11T22:36:22.378Z,10.13
2022-12-11T22:38:50.075Z,11.82
2022-12-11T22:41:22.705Z,12.43
2022-12-11T22:43:50.607Z,13.15
2022-12-11T22:46:19.488Z,9.80
2022-12-11T22:48:46.614Z,11.35
2022-12-11T22:51:13.815Z,11.63
2022-12-11T22:53:40.674Z,15.40
2022-12-11T22:56:09.979Z,10.23
2022-12-11T22:58:37.264Z,10.80
2022-12-11T23:01:15.548Z,12.77
2022-12-11T23:03:42.593Z,11.15
2022-12-11T23:06:13.420Z,11.50
2022-12-11T23:08:41.499Z,13.43
2022-12-11T23:11:19.471Z,11.52
2022-12-11T23:13:46.662Z,10.55
2022-12-11T23:16:14.883Z,11.05
2022-12-11T23:18:42.148Z,10.55
2022-12-11T23:21:11.371Z,12.43
2022-12-11T23:23:38.671Z,11.00
2022-12-11T23:26:08.659Z,10.13
2022-12-11T23:28:36.321Z,10.85
2022-12-11T23:31:04.159Z,10.88
2022-12-11T23:33:31.054Z,11.05
2022-12-11T23:35:59.095Z,10.73
2022-12-11T23:38:26.322Z,10.63
2022-12-11T23:40:53.531Z,11.13
2022-12-11T23:43:20.425Z,12.02
2022-12-11T23:45:47.597Z,9.93
2022-12-11T23:48:14.513Z,9.13
2022-12-11T23:50:42.810Z,10.50
2022-12-11T23:53:10.028Z,9.55
2022-12-11T23:55:42.868Z,10.88
2022-12-11T23:58:10.877Z,10.27
